Terminal Aerodrome Forecast
Issued by NWS Springfield, MO

Home | Current Version | Previous Version | Text Only | Print | Product List | Glossary On
Versions: 1 2 3 4 5 6 7 8 9 10 11 12 13 14 15 16 17 18
000
FTUS43 KSGF 130500
TAFSGF
TAF
KSGF 130520Z 1306/1406 20007KT P6SM FEW200
     FM131000 20008KT P6SM SKC WS017/25035KT
     FM131400 24010G18KT P6SM SCT050 SCT250 PROB30 1318/1324 6SM
      -TSRA BR OVC040CB
     FM140000 VRB06KT P6SM SCT050 BKN250 PROB30 1400/1406 6SM -TSRA
      BR OVC040CB=

USA.gov is the U.S. government's official web portal to all federal, state and local government web resources and services.